Time;durP1;ratioP1;P1;durP2;ratioP2;P2;SDS_P1;SDS_P2;PMS_P1;PMS_P2;Temp;Humidity;BMP_temperature;BMP_pressure;BME280_temperature;BME280_humidity;BME280_pressure;Samples;Min_cycle;Max_cycle;Signal;HPM_P1;HPM_P2
2021/05/22 00:01:40;;;;;;;2.53;0.63;;;12.50;99.90;;;;;;5076428;28;20032;-66
2021/05/22 00:04:05;;;;;;;1.65;0.70;;;12.50;99.90;;;;;;5076098;28;20082;-67
2021/05/22 00:06:31;;;;;;;1.98;0.73;;;12.50;99.90;;;;;;5076176;28;20028;-67
2021/05/22 00:08:57;;;;;;;3.70;0.90;;;12.50;99.90;;;;;;5057863;28;20119;-66
2021/05/22 00:11:22;;;;;;;1.50;0.80;;;12.40;99.90;;;;;;5075183;28;20066;-66
2021/05/22 00:13:48;;;;;;;2.27;0.70;;;12.40;99.90;;;;;;5057954;28;20255;-66
2021/05/22 00:16:14;;;;;;;2.72;0.77;;;12.40;99.90;;;;;;5076663;28;20013;-66
2021/05/22 00:18:39;;;;;;;9.17;1.90;;;12.40;99.90;;;;;;5076401;28;20081;-67
2021/05/22 00:21:05;;;;;;;1.80;0.60;;;12.40;99.90;;;;;;5075900;28;20024;-66
2021/05/22 00:23:31;;;;;;;2.70;0.70;;;12.50;99.90;;;;;;5057976;28;20024;-66
2021/05/22 00:25:56;;;;;;;4.35;1.20;;;12.40;99.90;;;;;;5075985;28;20521;-66
2021/05/22 00:28:22;;;;;;;4.93;0.87;;;12.40;99.90;;;;;;5058008;28;20025;-65
2021/05/22 00:30:48;;;;;;;5.43;2.50;;;12.40;99.90;;;;;;5076288;28;20492;-67
2021/05/22 00:33:14;;;;;;;3.08;1.65;;;12.30;99.90;;;;;;5075917;28;20279;-66
2021/05/22 00:35:39;;;;;;;3.17;1.00;;;12.20;99.90;;;;;;5076029;28;20429;-66
2021/05/22 00:38:05;;;;;;;5.43;1.00;;;12.20;99.90;;;;;;5076300;28;20021;-65
2021/05/22 00:40:31;;;;;;;2.75;0.85;;;12.10;99.90;;;;;;5075985;28;20515;-66
2021/05/22 00:42:56;;;;;;;2.77;1.00;;;12.10;99.90;;;;;;5057715;28;20025;-65
2021/05/22 00:45:23;;;;;;;4.97;0.97;;;11.90;99.90;;;;;;5076312;28;20494;-65
2021/05/22 00:47:52;;;;;;;6.25;1.00;;;11.60;99.90;;;;;;5075992;28;20503;-66
2021/05/22 00:50:29;;;;;;;1.90;0.80;;;11.40;99.90;;;;;;5058082;28;20500;-66
2021/05/22 00:52:55;;;;;;;2.75;1.50;;;11.10;99.90;;;;;;5076801;28;20036;-65
2021/05/22 00:55:24;;;;;;;4.00;0.80;;;10.90;99.90;;;;;;5077269;28;20021;-66
2021/05/22 00:57:50;;;;;;;2.38;0.85;;;10.80;99.90;;;;;;5076827;28;20393;-65
2021/05/22 01:00:19;;;;;;;4.50;1.23;;;10.60;99.90;;;;;;5059650;28;20020;-65
2021/05/22 01:02:46;;;;;;;2.80;1.00;;;10.50;99.90;;;;;;5080418;28;20035;-65
2021/05/22 01:05:12;;;;;;;2.50;0.95;;;10.40;99.90;;;;;;5083197;28;20431;-66
2021/05/22 01:07:38;;;;;;;;;;;10.40;99.90;;;;;;5084440;28;20036;-66
2021/05/22 01:10:06;;;;;;;3.63;0.70;;;10.30;99.90;;;;;;5084355;28;19912;-66
2021/05/22 01:12:35;;;;;;;3.60;0.75;;;10.30;99.90;;;;;;5085499;28;20036;-66
2021/05/22 01:15:10;;;;;;;3.30;1.17;;;10.30;99.90;;;;;;5068324;28;20020;-66
2021/05/22 01:17:39;;;;;;;5.18;0.90;;;10.20;99.90;;;;;;5084509;28;20104;-66
2021/05/22 01:20:08;;;;;;;4.28;1.10;;;10.20;99.90;;;;;;5084661;28;20102;-66
2021/05/22 01:22:41;;;;;;;4.03;0.90;;;10.10;99.90;;;;;;5080193;28;20029;-66
2021/05/22 01:25:21;;;;;;;2.88;1.25;;;10.00;99.90;;;;;;5084643;28;20067;-66
2021/05/22 01:27:47;;;;;;;4.53;1.15;;;9.90;99.90;;;;;;5079015;28;20481;-66
2021/05/22 01:30:13;;;;;;;5.00;1.30;;;9.90;99.90;;;;;;5075128;28;20056;-65
2021/05/22 01:32:39;;;;;;;3.88;1.25;;;9.90;99.90;;;;;;5075109;28;20289;-66
2021/05/22 01:35:05;;;;;;;3.65;1.02;;;9.90;99.90;;;;;;5074609;28;20028;-66
2021/05/22 01:37:31;;;;;;;3.17;0.90;;;9.90;99.90;;;;;;5074013;28;20067;-66
2021/05/22 01:39:57;;;;;;;3.87;0.80;;;9.90;99.90;;;;;;5074224;28;20032;-66
2021/05/22 01:42:22;;;;;;;2.93;1.13;;;9.90;99.90;;;;;;5074733;28;20474;-66
2021/05/22 01:44:51;;;;;;;3.77;0.90;;;9.90;99.90;;;;;;5073878;28;20039;-66
2021/05/22 01:47:19;;;;;;;4.43;1.25;;;10.00;99.90;;;;;;5073887;28;20040;-65
2021/05/22 01:49:46;;;;;;;2.47;0.73;;;9.90;99.90;;;;;;5073716;28;20493;-65
2021/05/22 01:52:12;;;;;;;;;;;9.80;99.90;;;;;;5074083;28;20107;-66
2021/05/22 01:54:39;;;;;;;2.03;0.70;;;9.80;99.90;;;;;;5073656;28;19966;-66
2021/05/22 01:57:05;;;;;;;5.50;1.30;;;9.80;99.90;;;;;;5074139;28;20017;-66
2021/05/22 01:59:33;;;;;;;5.35;1.10;;;9.70;99.90;;;;;;5056172;28;20017;-66
2021/05/22 02:01:58;;;;;;;2.88;0.77;;;9.60;99.90;;;;;;5074362;28;20411;-66
2021/05/22 02:04:27;;;;;;;5.47;1.10;;;9.50;99.90;;;;;;5074227;28;20077;-66
2021/05/22 02:06:54;;;;;;;4.30;0.90;;;9.40;99.90;;;;;;5074520;28;20096;-66
2021/05/22 02:09:20;;;;;;;11.30;2.47;;;9.40;99.90;;;;;;5074450;28;20420;-66
2021/05/22 02:11:48;;;;;;;3.17;0.93;;;9.40;99.90;;;;;;5057305;28;20417;-66
2021/05/22 02:14:24;;;;;;;4.45;1.58;;;9.40;99.90;;;;;;5073944;28;20047;-66
2021/05/22 02:16:52;;;;;;;2.17;1.15;;;9.40;99.90;;;;;;5073805;28;20046;-66
2021/05/22 02:19:22;;;;;;;6.60;1.63;;;9.40;99.90;;;;;;5073694;28;20102;-66
2021/05/22 02:21:48;;;;;;;6.72;1.40;;;9.40;99.90;;;;;;5073430;28;20111;-66
2021/05/22 02:24:16;;;;;;;2.10;1.08;;;9.30;99.90;;;;;;5073609;28;20427;-65
2021/05/22 02:26:42;;;;;;;4.22;1.20;;;9.50;99.90;;;;;;5074088;28;20039;-66
2021/05/22 02:29:17;;;;;;;2.45;1.00;;;9.40;99.90;;;;;;5073148;28;20027;-66
2021/05/22 02:31:46;;;;;;;5.53;1.15;;;9.40;99.90;;;;;;5055341;28;20024;-66
2021/05/22 02:34:13;;;;;;;4.07;1.65;;;9.40;99.90;;;;;;5072757;28;20052;-66
2021/05/22 02:36:40;;;;;;;4.68;2.80;;;9.50;99.90;;;;;;5073105;28;20029;-66
2021/05/22 02:39:08;;;;;;;7.30;4.97;;;9.50;99.90;;;;;;5073464;28;20021;-66
2021/05/22 02:41:37;;;;;;;6.20;3.50;;;9.50;99.90;;;;;;5073019;28;20031;-65
2021/05/22 02:44:05;;;;;;;1.85;0.98;;;9.50;99.90;;;;;;5072942;28;20024;-65
2021/05/22 02:46:41;;;;;;;3.90;1.38;;;9.40;99.90;;;;;;5072847;28;20039;-65
2021/05/22 02:49:09;;;;;;;2.63;1.05;;;9.60;99.90;;;;;;5073219;28;20021;-65
2021/05/22 02:51:36;;;;;;;2.63;1.05;;;9.70;99.90;;;;;;5073001;28;20155;-65
2021/05/22 02:54:03;;;;;;;3.22;1.13;;;9.60;99.90;;;;;;5073132;28;20044;-65
2021/05/22 02:56:31;;;;;;;4.80;1.00;;;9.60;99.90;;;;;;5073260;28;20380;-65
2021/05/22 02:58:58;;;;;;;2.22;0.90;;;9.60;99.90;;;;;;5072740;28;20027;-65
2021/05/22 03:01:25;;;;;;;3.38;1.08;;;9.60;99.90;;;;;;5072887;28;20035;-65
2021/05/22 03:03:53;;;;;;;2.00;0.80;;;9.60;99.90;;;;;;5072847;28;20031;-66
2021/05/22 03:06:19;;;;;;;6.07;1.33;;;9.60;99.90;;;;;;5072858;28;20059;-65
2021/05/22 03:08:49;;;;;;;4.43;1.10;;;9.70;99.90;;;;;;5072833;28;20033;-65
2021/05/22 03:11:17;;;;;;;3.85;1.63;;;9.70;99.90;;;;;;5054935;28;20617;-65
2021/05/22 03:13:43;;;;;;;4.95;1.33;;;9.60;99.90;;;;;;5078190;28;20017;-65
2021/05/22 03:16:09;;;;;;;4.80;2.30;;;9.70;99.90;;;;;;5074415;28;20024;-65
2021/05/22 03:18:35;;;;;;;2.63;0.85;;;9.70;99.90;;;;;;5073271;28;20032;-66
2021/05/22 03:21:01;;;;;;;8.30;1.10;;;9.80;99.90;;;;;;5072386;28;20149;-66
2021/05/22 03:23:27;;;;;;;5.22;1.00;;;9.80;99.90;;;;;;5072521;28;20173;-66
2021/05/22 03:25:52;;;;;;;3.40;0.90;;;9.80;99.90;;;;;;5072638;28;20024;-66
2021/05/22 03:28:19;;;;;;;3.67;0.80;;;9.70;99.90;;;;;;5072623;28;20118;-66
2021/05/22 03:30:45;;;;;;;2.63;0.82;;;9.70;99.90;;;;;;5072421;28;20028;-66
2021/05/22 03:33:11;;;;;;;2.70;0.80;;;9.80;99.90;;;;;;5072538;28;20021;-66
2021/05/22 03:35:36;;;;;;;2.33;0.90;;;9.90;99.90;;;;;;5072616;28;20050;-66
2021/05/22 03:38:02;;;;;;;4.53;1.00;;;9.90;99.90;;;;;;5072496;28;20078;-66
2021/05/22 03:40:28;;;;;;;3.88;0.82;;;9.80;99.90;;;;;;5072794;28;20070;-67
2021/05/22 03:42:53;;;;;;;4.67;0.80;;;9.80;99.90;;;;;;5072476;28;20028;-66
2021/05/22 03:45:19;;;;;;;3.10;0.80;;;9.80;99.90;;;;;;5055537;28;20426;-66
2021/05/22 03:47:45;;;;;;;2.73;0.70;;;9.90;99.90;;;;;;5058328;28;20513;-66
2021/05/22 03:50:11;;;;;;;1.70;0.90;;;9.90;99.90;;;;;;5076090;28;20370;-66
2021/05/22 03:52:37;;;;;;;2.72;0.90;;;9.80;99.90;;;;;;5058138;28;20370;-66
2021/05/22 03:55:04;;;;;;;2.87;0.80;;;9.90;99.90;;;;;;5076696;28;20119;-66
2021/05/22 03:57:30;;;;;;;3.13;0.90;;;9.90;99.90;;;;;;5076492;28;20086;-66
2021/05/22 03:59:55;;;;;;;2.93;0.73;;;10.00;99.90;;;;;;5058027;28;20469;-66
2021/05/22 04:02:21;;;;;;;2.13;0.63;;;10.00;99.90;;;;;;5076103;28;20029;-67
2021/05/22 04:04:46;;;;;;;2.07;0.70;;;9.90;99.90;;;;;;5075834;28;20044;-67
2021/05/22 04:07:12;;;;;;;4.00;0.90;;;9.90;99.90;;;;;;5075717;28;20362;-66
2021/05/22 04:09:38;;;;;;;2.10;0.70;;;9.80;99.90;;;;;;5075950;28;20408;-66
2021/05/22 04:12:03;;;;;;;2.33;0.80;;;9.80;99.90;;;;;;5075880;28;20570;-67
2021/05/22 04:14:29;;;;;;;5.80;1.40;;;9.80;99.90;;;;;;5076811;28;20025;-66
2021/05/22 04:16:55;;;;;;;5.00;1.50;;;9.80;99.90;;;;;;5076300;28;20255;-66
2021/05/22 04:19:20;;;;;;;2.60;0.90;;;9.70;99.90;;;;;;5076193;28;20034;-66
2021/05/22 04:21:46;;;;;;;2.83;0.83;;;9.70;99.90;;;;;;5076077;28;20025;-66
2021/05/22 04:24:11;;;;;;;5.57;1.40;;;9.70;99.90;;;;;;5075936;28;20024;-68
2021/05/22 04:26:37;;;;;;;2.47;0.80;;;9.70;99.90;;;;;;5076658;28;20406;-66
2021/05/22 04:29:04;;;;;;;1.93;0.80;;;9.80;99.90;;;;;;5058081;28;20267;-67
2021/05/22 04:31:30;;;;;;;5.63;1.05;;;9.80;99.90;;;;;;5075631;28;20021;-66
2021/05/22 04:33:55;;;;;;;4.53;1.00;;;9.80;99.90;;;;;;5075625;28;20028;-66
2021/05/22 04:36:21;;;;;;;2.43;0.73;;;9.80;99.90;;;;;;5075835;28;20013;-66
2021/05/22 04:38:47;;;;;;;2.27;0.77;;;9.80;99.90;;;;;;5075813;28;20069;-67
2021/05/22 04:41:12;;;;;;;2.33;1.00;;;9.70;99.90;;;;;;5075447;28;20031;-65
2021/05/22 04:43:38;;;;;;;5.50;1.23;;;9.80;99.90;;;;;;5075343;28;20027;-64
2021/05/22 04:46:04;;;;;;;6.65;1.58;;;9.70;99.90;;;;;;5075547;28;20021;-64
2021/05/22 04:48:29;;;;;;;2.33;0.87;;;9.80;99.90;;;;;;5075976;28;20040;-65
2021/05/22 04:50:55;;;;;;;3.27;1.23;;;9.80;99.90;;;;;;5075208;28;20277;-65
2021/05/22 04:53:24;;;;;;;2.85;0.80;;;9.80;99.90;;;;;;5075278;28;20123;-65
2021/05/22 04:55:51;;;;;;;3.45;1.10;;;9.80;99.90;;;;;;5075889;28;20020;-66
2021/05/22 04:58:18;;;;;;;4.13;1.10;;;9.90;99.90;;;;;;5056815;28;20028;-67
2021/05/22 05:00:43;;;;;;;2.85;0.90;;;9.90;99.90;;;;;;5075856;28;20023;-65
2021/05/22 05:03:09;;;;;;;4.73;1.23;;;10.00;99.90;;;;;;5077640;28;20028;-66
2021/05/22 05:05:34;;;;;;;2.47;1.10;;;10.10;99.90;;;;;;5059227;28;20058;-65
2021/05/22 05:08:00;;;;;;;3.23;1.00;;;10.10;99.90;;;;;;5076011;28;20021;-65
2021/05/22 05:10:26;;;;;;;6.22;1.20;;;10.10;99.90;;;;;;5077955;28;20036;-65
2021/05/22 05:12:53;;;;;;;5.35;1.30;;;10.10;99.90;;;;;;5057576;28;20036;-66
2021/05/22 05:15:20;;;;;;;4.35;1.27;;;10.20;99.90;;;;;;5075925;28;20468;-65
2021/05/22 05:17:45;;;;;;;3.17;0.98;;;10.20;99.90;;;;;;5075885;28;20062;-65
2021/05/22 05:20:12;;;;;;;6.60;1.17;;;10.30;99.90;;;;;;5074958;28;20361;-66
2021/05/22 05:22:37;;;;;;;3.67;0.98;;;10.40;99.90;;;;;;5075259;28;20305;-65
2021/05/22 05:25:05;;;;;;;2.20;1.10;;;10.50;99.90;;;;;;5075456;28;20028;-65
2021/05/22 05:27:30;;;;;;;1.80;0.90;;;10.50;99.90;;;;;;5074991;28;20266;-65
2021/05/22 05:29:56;;;;;;;5.00;1.07;;;10.50;99.90;;;;;;5075818;28;20020;-67
2021/05/22 05:32:22;;;;;;;5.27;0.90;;;10.60;99.90;;;;;;5076351;28;20079;-65
2021/05/22 05:34:47;;;;;;;3.20;1.07;;;10.70;99.90;;;;;;5075239;28;20056;-66
2021/05/22 05:37:13;;;;;;;6.22;0.98;;;10.80;99.90;;;;;;5074982;28;20107;-65
2021/05/22 05:39:39;;;;;;;5.50;1.23;;;10.80;99.90;;;;;;5056747;28;20037;-66
2021/05/22 05:42:06;;;;;;;6.82;1.52;;;10.90;99.90;;;;;;5075192;28;20028;-66
2021/05/22 05:44:32;;;;;;;5.18;0.98;;;10.90;99.90;;;;;;5074987;28;20029;-65
2021/05/22 05:46:58;;;;;;;4.10;0.90;;;10.90;99.90;;;;;;5074398;28;20395;-64
2021/05/22 05:49:28;;;;;;;3.15;0.85;;;11.00;99.90;;;;;;5074616;28;20679;-64
2021/05/22 05:51:58;;;;;;;12.35;1.80;;;11.10;99.90;;;;;;5073961;28;20031;-64
2021/05/22 05:54:25;;;;;;;2.92;0.90;;;11.10;99.90;;;;;;5074296;28;20028;-65
2021/05/22 05:56:50;;;;;;;;;;;11.10;99.90;;;;;;5074909;28;20384;-66
2021/05/22 05:59:17;;;;;;;5.75;1.00;;;11.20;99.90;;;;;;5073866;28;20003;-65
2021/05/22 06:01:43;;;;;;;6.47;1.58;;;11.20;99.90;;;;;;5073881;28;20099;-65
2021/05/22 06:04:09;;;;;;;4.55;1.00;;;11.30;99.90;;;;;;5074370;28;20063;-65
2021/05/22 06:06:35;;;;;;;6.55;1.15;;;11.30;99.90;;;;;;5073672;28;20032;-65
2021/05/22 06:09:02;;;;;;;4.15;1.33;;;11.30;99.90;;;;;;5072765;28;20366;-66
2021/05/22 06:11:30;;;;;;;6.63;1.17;;;11.40;99.90;;;;;;5073953;28;20319;-63
2021/05/22 06:13:56;;;;;;;7.20;2.25;;;11.50;99.90;;;;;;5075345;28;20481;-63
2021/05/22 06:16:34;;;;;;;7.63;0.98;;;11.50;99.90;;;;;;5055293;28;20067;-64
2021/05/22 06:18:59;;;;;;;;;;;11.60;99.90;;;;;;5074167;28;20023;-65
2021/05/22 06:21:25;;;;;;;5.68;1.38;;;11.60;99.90;;;;;;5073148;28;19909;-65
2021/05/22 06:23:51;;;;;;;3.30;0.95;;;11.60;99.90;;;;;;5073257;28;20036;-66
2021/05/22 06:26:17;;;;;;;4.25;1.25;;;11.80;99.90;;;;;;5073083;28;20448;-66
2021/05/22 06:28:43;;;;;;;3.17;1.00;;;11.80;99.90;;;;;;5073988;28;20035;-65
2021/05/22 06:31:09;;;;;;;8.07;1.42;;;11.80;99.90;;;;;;5073540;28;20493;-67
2021/05/22 06:33:35;;;;;;;4.67;1.17;;;11.90;99.90;;;;;;5073748;28;20028;-66
2021/05/22 06:36:01;;;;;;;6.50;1.17;;;12.00;99.90;;;;;;5074151;28;20029;-66
2021/05/22 06:38:27;;;;;;;6.53;1.30;;;12.10;99.90;;;;;;5073712;28;20104;-65
2021/05/22 06:40:54;;;;;;;5.75;1.17;;;12.20;99.90;;;;;;5074201;28;20040;-65
2021/05/22 06:43:19;;;;;;;4.82;1.05;;;12.20;99.90;;;;;;5079639;28;20039;-65
2021/05/22 06:45:55;;;;;;;6.93;1.30;;;12.20;99.90;;;;;;5075144;28;20469;-65
2021/05/22 06:48:21;;;;;;;5.90;1.02;;;12.20;99.90;;;;;;5055539;28;20098;-67
2021/05/22 06:50:46;;;;;;;3.37;1.10;;;12.30;99.90;;;;;;5076184;28;20543;-67
2021/05/22 06:53:12;;;;;;;3.50;0.97;;;12.40;99.90;;;;;;5075588;28;20029;-67
2021/05/22 06:55:37;;;;;;;6.40;1.33;;;12.50;99.90;;;;;;5055453;28;20035;-66
2021/05/22 06:58:05;;;;;;;4.10;1.00;;;12.60;99.90;;;;;;5055512;28;20074;-65
2021/05/22 07:00:31;;;;;;;7.93;1.08;;;12.60;99.90;;;;;;5073656;28;20103;-65
2021/05/22 07:02:56;;;;;;;3.93;1.17;;;12.60;99.90;;;;;;5078414;28;20063;-64
2021/05/22 07:05:22;;;;;;;6.17;1.13;;;12.60;99.90;;;;;;5073413;28;20518;-65
2021/05/22 07:07:48;;;;;;;5.90;1.30;;;12.70;99.90;;;;;;5073382;28;20029;-65
2021/05/22 07:10:13;;;;;;;5.30;1.30;;;12.70;99.90;;;;;;5072690;28;20282;-65
2021/05/22 07:12:40;;;;;;;6.45;1.45;;;12.80;99.90;;;;;;5073602;28;20033;-65
2021/05/22 07:15:07;;;;;;;4.93;1.10;;;12.90;99.90;;;;;;5073115;28;20084;-65
2021/05/22 07:17:33;;;;;;;8.02;1.70;;;12.90;99.90;;;;;;5072952;28;20078;-65
2021/05/22 07:19:59;;;;;;;8.00;1.33;;;13.00;99.90;;;;;;5073282;28;20020;-64
2021/05/22 07:22:24;;;;;;;2.88;1.00;;;13.10;99.90;;;;;;5077603;28;20542;-64
2021/05/22 07:24:50;;;;;;;4.85;0.90;;;13.10;99.90;;;;;;5076581;28;20021;-64
2021/05/22 07:27:16;;;;;;;4.17;1.23;;;13.20;99.90;;;;;;5076581;28;20034;-64
2021/05/22 07:29:43;;;;;;;;;;;13.20;99.90;;;;;;5076940;28;20029;-65
2021/05/22 07:32:08;;;;;;;8.38;1.88;;;13.30;99.90;;;;;;5076286;28;19912;-64
2021/05/22 07:34:34;;;;;;;5.97;1.00;;;13.40;99.90;;;;;;5076364;28;20027;-64
2021/05/22 07:37:00;;;;;;;9.98;2.15;;;13.50;99.90;;;;;;5077140;28;20670;-64
2021/05/22 07:39:25;;;;;;;4.63;1.47;;;13.60;99.90;;;;;;5078106;28;20025;-63
2021/05/22 07:41:51;;;;;;;4.73;1.03;;;13.70;99.90;;;;;;5079543;28;20074;-64
2021/05/22 07:44:17;;;;;;;6.55;1.23;;;13.70;99.90;;;;;;5080745;28;20294;-65
2021/05/22 07:46:43;;;;;;;6.67;1.60;;;13.80;99.90;;;;;;5077607;28;20071;-63
2021/05/22 07:49:09;;;;;;;5.10;1.35;;;14.10;99.90;;;;;;5079443;28;20025;-65
2021/05/22 07:51:34;;;;;;;4.25;1.20;;;14.30;99.90;;;;;;5060318;28;20374;-66
2021/05/22 07:54:00;;;;;;;6.60;1.40;;;14.50;99.90;;;;;;5078632;28;20099;-66
2021/05/22 07:56:26;;;;;;;5.15;1.63;;;14.70;99.90;;;;;;5061792;28;20036;-66
2021/05/22 07:58:52;;;;;;;6.03;2.15;;;14.90;99.90;;;;;;5075970;28;20033;-66
2021/05/22 08:01:17;;;;;;;4.82;1.00;;;14.70;99.90;;;;;;5059168;28;20033;-67
2021/05/22 08:03:43;;;;;;;4.78;1.30;;;14.80;99.90;;;;;;5077124;28;20040;-66
2021/05/22 08:06:10;;;;;;;3.88;1.15;;;15.00;99.90;;;;;;5075688;28;20499;-67
2021/05/22 08:08:35;;;;;;;4.65;1.23;;;15.40;97.90;;;;;;5075858;28;20020;-67
2021/05/22 08:11:01;;;;;;;6.55;1.50;;;16.20;96.30;;;;;;5075500;28;20401;-68
2021/05/22 08:13:31;;;;;;;7.55;1.35;;;17.30;94.50;;;;;;5075777;28;20111;-67
2021/05/22 08:15:57;;;;;;;5.10;1.27;;;17.40;93.20;;;;;;5075948;28;20450;-67
2021/05/22 08:18:23;;;;;;;7.45;1.20;;;17.60;91.50;;;;;;5076085;28;20103;-67
2021/05/22 08:20:50;;;;;;;5.60;1.85;;;17.70;90.80;;;;;;5076053;28;20028;-66
2021/05/22 08:23:16;;;;;;;;;;;17.90;89.80;;;;;;5076148;28;20020;-65
2021/05/22 08:25:42;;;;;;;5.45;1.10;;;18.20;87.50;;;;;;5075915;28;20350;-67
2021/05/22 08:28:08;;;;;;;3.22;1.27;;;18.50;84.70;;;;;;5075803;28;20186;-66
2021/05/22 08:30:34;;;;;;;;;;;19.30;82.00;;;;;;5075620;28;20082;-66
2021/05/22 08:33:01;;;;;;;3.95;1.02;;;20.40;78.80;;;;;;5074625;28;19909;-66
2021/05/22 08:35:27;;;;;;;3.72;1.15;;;20.00;75.40;;;;;;5075620;28;20362;-67
2021/05/22 08:37:53;;;;;;;6.97;1.63;;;19.70;75.90;;;;;;5057584;28;20023;-67
2021/05/22 08:40:18;;;;;;;3.58;1.30;;;19.50;76.70;;;;;;5075767;28;20028;-66
2021/05/22 08:42:44;;;;;;;6.38;1.10;;;20.20;75.50;;;;;;5058389;28;20050;-66
2021/05/22 08:45:12;;;;;;;3.20;1.08;;;20.30;72.70;;;;;;5057996;28;20115;-68
2021/05/22 08:47:39;;;;;;;2.97;0.88;;;20.00;70.40;;;;;;5075132;28;20081;-66
2021/05/22 08:50:07;;;;;;;4.55;1.23;;;21.10;69.30;;;;;;5075455;28;20024;-66
2021/05/22 08:52:33;;;;;;;4.10;1.10;;;22.20;64.50;;;;;;5075119;28;20078;-66
2021/05/22 08:54:59;;;;;;;4.55;1.02;;;21.90;64.10;;;;;;5075419;28;20021;-65
2021/05/22 08:57:25;;;;;;;3.20;1.00;;;21.50;63.10;;;;;;5075301;28;20111;-66
2021/05/22 08:59:51;;;;;;;3.40;1.10;;;22.30;63.30;;;;;;5075375;28;20100;-66
2021/05/22 09:02:19;;;;;;;;;;;23.70;61.00;;;;;;5075439;28;20473;-66
2021/05/22 09:05:09;;;;;;;4.18;0.93;;;23.90;58.60;;;;;;5074864;28;20007;-66
2021/05/22 09:07:46;;;;;;;4.68;1.20;;;23.70;58.30;;;;;;5058725;28;20035;-67
2021/05/22 09:10:27;;;;;;;5.63;1.40;;;23.80;57.70;;;;;;5076771;28;20024;-66
2021/05/22 09:12:58;;;;;;;4.88;1.08;;;23.20;56.50;;;;;;5074754;28;20021;-66
2021/05/22 09:15:35;;;;;;;6.75;1.60;;;23.00;56.50;;;;;;5075204;28;20043;-66
2021/05/22 09:18:09;;;;;;;5.57;1.30;;;23.00;57.40;;;;;;5075476;28;20428;-65
2021/05/22 09:20:37;;;;;;;2.85;1.00;;;23.10;57.00;;;;;;5056690;28;20028;-66
2021/05/22 09:23:06;;;;;;;3.72;1.25;;;23.20;56.20;;;;;;5074735;28;20445;-66
2021/05/22 09:25:35;;;;;;;3.35;1.20;;;23.10;55.90;;;;;;5074923;28;20074;-66
2021/05/22 09:28:01;;;;;;;6.25;1.08;;;21.80;56.50;;;;;;5074967;28;20024;-66
2021/05/22 09:30:27;;;;;;;;;;;20.60;58.40;;;;;;5074786;28;20497;-66
2021/05/22 09:32:54;;;;;;;4.90;1.08;;;19.30;60.10;;;;;;5074642;28;19953;-66
2021/05/22 09:35:21;;;;;;;5.63;1.52;;;18.60;61.70;;;;;;5074834;28;20020;-66
2021/05/22 09:37:50;;;;;;;3.25;1.10;;;18.50;63.90;;;;;;5074490;28;20059;-66
2021/05/22 09:40:19;;;;;;;5.10;1.20;;;18.60;65.10;;;;;;5074239;28;20040;-65
2021/05/22 09:42:45;;;;;;;2.55;0.80;;;19.10;64.50;;;;;;5074332;28;20056;-65
2021/05/22 09:45:21;;;;;;;4.30;1.08;;;19.10;64.20;;;;;;5056159;28;20427;-65
2021/05/22 09:47:47;;;;;;;8.30;1.57;;;18.90;63.30;;;;;;5074065;28;20040;-65
2021/05/22 09:50:26;;;;;;;5.75;1.48;;;18.80;63.80;;;;;;5074062;28;20021;-65
2021/05/22 09:52:53;;;;;;;5.05;1.10;;;18.20;64.10;;;;;;5074223;28;20427;-65
2021/05/22 09:55:20;;;;;;;5.68;1.42;;;18.10;63.90;;;;;;5074298;28;20021;-66
2021/05/22 09:57:46;;;;;;;4.70;1.17;;;18.90;61.90;;;;;;5074250;28;20035;-67
2021/05/22 10:00:15;;;;;;;4.05;1.02;;;19.60;60.30;;;;;;5073944;28;20025;-65
2021/05/22 10:02:48;;;;;;;4.70;1.15;;;19.80;58.80;;;;;;5055894;28;20387;-67
2021/05/22 10:05:36;;;;;;;3.75;0.85;;;19.30;59.90;;;;;;5073572;28;20021;-65
2021/05/22 10:08:03;;;;;;;5.07;1.10;;;18.30;61.40;;;;;;5073682;28;20059;-66
2021/05/22 10:10:46;;;;;;;3.15;0.80;;;18.10;62.20;;;;;;5074492;28;20032;-66
2021/05/22 10:13:15;;;;;;;4.63;1.25;;;17.70;63.30;;;;;;5073759;28;20028;-65
2021/05/22 10:15:43;;;;;;;4.63;2.25;;;17.40;63.80;;;;;;5055534;28;20384;-65
2021/05/22 10:18:09;;;;;;;5.93;1.00;;;17.60;64.50;;;;;;5073559;28;20027;-65
2021/05/22 10:20:35;;;;;;;5.82;1.33;;;18.00;64.10;;;;;;5073459;28;20025;-65
2021/05/22 10:23:01;;;;;;;4.22;1.13;;;18.10;63.10;;;;;;5073129;28;20104;-65
2021/05/22 10:25:27;;;;;;;;;;;18.40;60.70;;;;;;5073452;28;20031;-67
2021/05/22 10:27:53;;;;;;;3.97;0.93;;;19.90;57.20;;;;;;5072811;28;19911;-67
2021/05/22 10:30:20;;;;;;;4.22;1.17;;;21.10;54.90;;;;;;5073613;28;20414;-67
2021/05/22 10:32:46;;;;;;;4.82;1.13;;;20.80;56.00;;;;;;5055798;28;20435;-65
2021/05/22 10:35:14;;;;;;;5.00;1.33;;;21.00;56.30;;;;;;5073990;28;20021;-66
2021/05/22 10:37:45;;;;;;;3.58;1.08;;;21.90;55.50;;;;;;5075601;28;20203;-65
2021/05/22 10:40:14;;;;;;;2.10;0.70;;;23.10;53.50;;;;;;5074288;28;20031;-65
2021/05/22 10:42:47;;;;;;;2.92;1.25;;;24.20;51.00;;;;;;5073644;28;20048;-66
2021/05/22 10:45:31;;;;;;;2.63;1.25;;;24.70;49.70;;;;;;5073491;28;20036;-64
2021/05/22 10:48:02;;;;;;;3.10;1.25;;;25.10;48.00;;;;;;5073000;28;20016;-66
2021/05/22 10:50:43;;;;;;;5.10;0.85;;;25.20;48.20;;;;;;5073398;28;20033;-65
2021/05/22 10:53:25;;;;;;;3.22;1.10;;;25.90;46.00;;;;;;5073602;28;20078;-65
2021/05/22 10:56:05;;;;;;;4.78;2.33;;;25.70;46.40;;;;;;5072847;28;20017;-65
2021/05/22 10:58:32;;;;;;;5.00;1.10;;;25.70;45.70;;;;;;5073556;28;20017;-66
2021/05/22 11:04:15;;;;;;;3.08;1.00;;;25.70;45.80;;;;;;5073314;28;20028;-67
2021/05/22 11:06:41;;;;;;;3.95;0.80;;;24.60;45.60;;;;;;5073146;28;20042;-66
2021/05/22 11:09:29;;;;;;;;;;;23.60;46.20;;;;;;5073431;28;20028;-64
2021/05/22 11:12:29;;;;;;;2.72;0.90;;;22.10;48.00;;;;;;5072827;28;19915;-65
2021/05/22 11:14:56;;;;;;;3.70;0.90;;;21.10;50.10;;;;;;5054778;28;20016;-66
2021/05/22 11:17:33;;;;;;;4.40;1.05;;;20.30;50.30;;;;;;5073599;28;20074;-66
2021/05/22 11:20:06;;;;;;;;;;;19.90;51.90;;;;;;5073439;28;20078;-66
2021/05/22 11:22:48;;;;;;;4.22;1.05;;;19.50;52.20;;;;;;5073095;28;19904;-66
2021/05/22 11:25:20;;;;;;;3.22;0.75;;;19.30;53.00;;;;;;5054646;28;20115;-66
2021/05/22 11:27:46;;;;;;;5.50;1.05;;;19.10;52.60;;;;;;5073039;28;20063;-66
2021/05/22 11:30:13;;;;;;;;;;;19.00;52.20;;;;;;5055249;28;20119;-65
2021/05/22 11:32:56;;;;;;;3.30;0.90;;;18.80;52.10;;;;;;5072838;28;19913;-66
2021/05/22 11:35:27;;;;;;;5.18;1.17;;;18.70;52.50;;;;;;5072902;28;20020;-67
2021/05/22 11:38:17;;;;;;;2.67;0.70;;;18.80;52.70;;;;;;5072817;28;20380;-66
2021/05/22 11:40:43;;;;;;;5.03;1.80;;;18.90;53.50;;;;;;5042826;28;20057;-66
2021/05/22 11:43:25;;;;;;;5.88;1.55;;;19.10;57.50;;;;;;5072553;28;20067;-66
2021/05/22 11:46:08;;;;;;;3.42;0.82;;;19.30;55.30;;;;;;5072679;28;20088;-66
2021/05/22 11:48:42;;;;;;;2.10;0.73;;;19.50;54.00;;;;;;5072738;28;20021;-66
2021/05/22 11:51:11;;;;;;;2.67;0.70;;;19.30;53.20;;;;;;5072265;28;20032;-65
2021/05/22 11:53:39;;;;;;;6.38;1.00;;;19.00;53.90;;;;;;5054312;28;20385;-65
2021/05/22 11:56:16;;;;;;;3.67;0.80;;;18.70;54.70;;;;;;5072259;28;20044;-65
2021/05/22 11:58:44;;;;;;;4.38;1.30;;;18.50;56.20;;;;;;5072712;28;20024;-65
2021/05/22 12:01:11;;;;;;;4.78;1.10;;;18.40;56.30;;;;;;5072603;28;20299;-65
2021/05/22 12:03:37;;;;;;;4.40;1.05;;;18.50;56.70;;;;;;5072464;28;20028;-65
2021/05/22 12:06:04;;;;;;;;;;;18.70;56.50;;;;;;5055132;28;20470;-65
2021/05/22 12:08:31;;;;;;;4.28;0.80;;;18.80;56.80;;;;;;5056986;28;19904;-66
2021/05/22 12:10:58;;;;;;;3.92;1.00;;;18.90;57.00;;;;;;5075665;28;20485;-64
2021/05/22 12:13:24;;;;;;;1.75;0.85;;;18.70;56.70;;;;;;5075878;28;20078;-65
2021/05/22 12:15:50;;;;;;;2.85;0.80;;;18.50;57.10;;;;;;5076326;28;20377;-65
2021/05/22 12:18:17;;;;;;;4.45;1.13;;;18.40;58.50;;;;;;5076196;28;20029;-65
2021/05/22 12:20:50;;;;;;;3.38;1.05;;;18.30;59.90;;;;;;5075709;28;20024;-65
2021/05/22 12:23:32;;;;;;;1.77;0.57;;;18.40;58.00;;;;;;5075818;28;20465;-65
2021/05/22 12:26:00;;;;;;;4.50;1.17;;;18.40;58.00;;;;;;5075621;28;20055;-65
2021/05/22 12:28:27;;;;;;;3.38;0.80;;;18.20;59.80;;;;;;5057716;28;20497;-64
2021/05/22 12:30:53;;;;;;;;;;;17.90;61.70;;;;;;5075933;28;20056;-63
2021/05/22 12:33:19;;;;;;;1.58;0.85;;;17.80;61.40;;;;;;5075282;28;19961;-65
2021/05/22 12:35:48;;;;;;;5.65;0.90;;;17.80;61.10;;;;;;5075351;28;20533;-65
2021/05/22 12:38:15;;;;;;;1.80;0.80;;;17.90;61.90;;;;;;5075843;28;20029;-65
2021/05/22 12:40:47;;;;;;;;;;;18.00;62.00;;;;;;5075627;28;20021;-65
2021/05/22 12:43:14;;;;;;;2.00;0.50;;;17.90;62.00;;;;;;5057259;28;19912;-65
2021/05/22 12:45:43;;;;;;;3.28;0.50;;;17.80;61.90;;;;;;5075314;28;20021;-65
2021/05/22 12:48:23;;;;;;;2.42;0.50;;;17.80;62.40;;;;;;5074882;28;20021;-63
2021/05/22 12:50:49;;;;;;;2.58;0.70;;;18.00;62.20;;;;;;5075071;28;20020;-66
2021/05/22 12:53:28;;;;;;;1.33;0.47;;;18.00;62.90;;;;;;5075104;28;20358;-65
2021/05/22 12:56:05;;;;;;;1.67;0.60;;;18.10;62.50;;;;;;5075531;28;20377;-64
2021/05/22 12:58:32;;;;;;;2.45;0.95;;;18.20;61.40;;;;;;5075539;28;20027;-64
2021/05/22 13:01:02;;;;;;;3.20;0.77;;;18.20;61.60;;;;;;5056921;28;20043;-65